sensor_id;sensor_type;location;lat;lon;timestamp;P1;durP1;ratioP1;P2;durP2;ratioP2
17794;SDS011;9021;50.882;4.326;2022-09-03T00:00:55;5.18;;;1.98;;
17794;SDS011;9021;50.882;4.326;2022-09-03T00:03:39;4.85;;;1.70;;
17794;SDS011;9021;50.882;4.326;2022-09-03T00:06:13;2.35;;;1.52;;
17794;SDS011;9021;50.882;4.326;2022-09-03T00:09:02;3.50;;;1.58;;
17794;SDS011;9021;50.882;4.326;2022-09-03T00:14:27;5.93;;;1.90;;
17794;SDS011;9021;50.882;4.326;2022-09-03T00:17:08;3.50;;;1.67;;
17794;SDS011;9021;50.882;4.326;2022-09-03T00:19:54;2.63;;;1.85;;
17794;SDS011;9021;50.882;4.326;2022-09-03T00:22:34;4.93;;;2.05;;
17794;SDS011;9021;50.882;4.326;2022-09-03T00:25:06;7.75;;;1.98;;
17794;SDS011;9021;50.882;4.326;2022-09-03T00:27:38;7.13;;;2.15;;
17794;SDS011;9021;50.882;4.326;2022-09-03T00:32:53;4.05;;;1.83;;
17794;SDS011;9021;50.882;4.326;2022-09-03T00:35:31;5.30;;;2.50;;
17794;SDS011;9021;50.882;4.326;2022-09-03T00:38:04;4.63;;;2.15;;
17794;SDS011;9021;50.882;4.326;2022-09-03T00:43:02;3.33;;;2.33;;
17794;SDS011;9021;50.882;4.326;2022-09-03T00:48:24;5.55;;;2.08;;
17794;SDS011;9021;50.882;4.326;2022-09-03T00:53:59;6.45;;;2.38;;
17794;SDS011;9021;50.882;4.326;2022-09-03T00:59:33;3.33;;;1.85;;
17794;SDS011;9021;50.882;4.326;2022-09-03T01:02:56;2.90;;;2.10;;
17794;SDS011;9021;50.882;4.326;2022-09-03T01:07:57;3.45;;;1.92;;
17794;SDS011;9021;50.882;4.326;2022-09-03T01:10:55;6.83;;;2.17;;
17794;SDS011;9021;50.882;4.326;2022-09-03T01:13:29;10.55;;;2.05;;
17794;SDS011;9021;50.882;4.326;2022-09-03T01:18:34;8.65;;;2.15;;
17794;SDS011;9021;50.882;4.326;2022-09-03T01:26:43;3.85;;;1.70;;
17794;SDS011;9021;50.882;4.326;2022-09-03T01:34:52;6.03;;;2.20;;
17794;SDS011;9021;50.882;4.326;2022-09-03T01:37:24;6.28;;;2.13;;
17794;SDS011;9021;50.882;4.326;2022-09-03T01:42:54;2.65;;;2.30;;
17794;SDS011;9021;50.882;4.326;2022-09-03T01:51:21;6.63;;;2.00;;
17794;SDS011;9021;50.882;4.326;2022-09-03T01:53:59;5.05;;;2.40;;
17794;SDS011;9021;50.882;4.326;2022-09-03T01:59:54;2.38;;;2.00;;
17794;SDS011;9021;50.882;4.326;2022-09-03T02:02:25;6.72;;;2.10;;
17794;SDS011;9021;50.882;4.326;2022-09-03T02:07:33;4.90;;;2.30;;
17794;SDS011;9021;50.882;4.326;2022-09-03T02:10:02;3.50;;;2.10;;
17794;SDS011;9021;50.882;4.326;2022-09-03T02:12:30;5.40;;;2.03;;
17794;SDS011;9021;50.882;4.326;2022-09-03T02:15:00;4.18;;;1.92;;
17794;SDS011;9021;50.882;4.326;2022-09-03T02:17:30;2.67;;;2.20;;
17794;SDS011;9021;50.882;4.326;2022-09-03T02:19:56;4.68;;;1.95;;
17794;SDS011;9021;50.882;4.326;2022-09-03T02:22:22;4.45;;;2.13;;
17794;SDS011;9021;50.882;4.326;2022-09-03T02:24:48;3.33;;;2.30;;
17794;SDS011;9021;50.882;4.326;2022-09-03T02:27:14;4.55;;;2.20;;
17794;SDS011;9021;50.882;4.326;2022-09-03T02:29:40;3.92;;;2.30;;
17794;SDS011;9021;50.882;4.326;2022-09-03T02:32:06;4.95;;;2.20;;
17794;SDS011;9021;50.882;4.326;2022-09-03T02:34:31;4.95;;;2.50;;
17794;SDS011;9021;50.882;4.326;2022-09-03T02:36:57;4.05;;;2.40;;
17794;SDS011;9021;50.882;4.326;2022-09-03T02:39:23;5.70;;;2.53;;
17794;SDS011;9021;50.882;4.326;2022-09-03T02:41:53;4.97;;;2.20;;
17794;SDS011;9021;50.882;4.326;2022-09-03T02:44:23;3.60;;;2.38;;
17794;SDS011;9021;50.882;4.326;2022-09-03T02:46:59;7.22;;;2.55;;
17794;SDS011;9021;50.882;4.326;2022-09-03T02:49:26;4.80;;;2.53;;
17794;SDS011;9021;50.882;4.326;2022-09-03T02:51:57;5.57;;;3.08;;
17794;SDS011;9021;50.882;4.326;2022-09-03T02:54:30;4.57;;;2.50;;
17794;SDS011;9021;50.882;4.326;2022-09-03T02:57:00;3.78;;;2.45;;
17794;SDS011;9021;50.882;4.326;2022-09-03T02:59:26;5.25;;;2.90;;
17794;SDS011;9021;50.882;4.326;2022-09-03T03:01:54;5.18;;;2.80;;
17794;SDS011;9021;50.882;4.326;2022-09-03T03:04:20;4.97;;;2.72;;
17794;SDS011;9021;50.882;4.326;2022-09-03T03:09:14;3.67;;;2.78;;
17794;SDS011;9021;50.882;4.326;2022-09-03T03:11:43;4.15;;;3.00;;
17794;SDS011;9021;50.882;4.326;2022-09-03T03:14:08;3.03;;;2.40;;
17794;SDS011;9021;50.882;4.326;2022-09-03T03:16:34;6.93;;;2.63;;
17794;SDS011;9021;50.882;4.326;2022-09-03T03:19:00;7.95;;;3.00;;
17794;SDS011;9021;50.882;4.326;2022-09-03T03:21:26;3.70;;;2.72;;
17794;SDS011;9021;50.882;4.326;2022-09-03T03:23:52;5.35;;;3.22;;
17794;SDS011;9021;50.882;4.326;2022-09-03T03:26:18;4.35;;;2.75;;
17794;SDS011;9021;50.882;4.326;2022-09-03T03:28:47;4.32;;;2.83;;
17794;SDS011;9021;50.882;4.326;2022-09-03T03:31:15;6.30;;;5.68;;
17794;SDS011;9021;50.882;4.326;2022-09-03T03:33:43;5.13;;;3.63;;
17794;SDS011;9021;50.882;4.326;2022-09-03T03:36:10;6.03;;;5.43;;
17794;SDS011;9021;50.882;4.326;2022-09-03T03:38:37;6.97;;;5.07;;
17794;SDS011;9021;50.882;4.326;2022-09-03T03:43:35;10.18;;;5.68;;
17794;SDS011;9021;50.882;4.326;2022-09-03T03:46:01;7.82;;;5.47;;
17794;SDS011;9021;50.882;4.326;2022-09-03T03:48:26;6.00;;;5.10;;
17794;SDS011;9021;50.882;4.326;2022-09-03T03:50:52;7.13;;;4.72;;
17794;SDS011;9021;50.882;4.326;2022-09-03T03:53:18;11.10;;;5.25;;
17794;SDS011;9021;50.882;4.326;2022-09-03T03:58:22;5.57;;;4.60;;
17794;SDS011;9021;50.882;4.326;2022-09-03T04:00:51;7.03;;;4.40;;
17794;SDS011;9021;50.882;4.326;2022-09-03T04:03:17;7.35;;;5.18;;
17794;SDS011;9021;50.882;4.326;2022-09-03T04:08:18;8.02;;;4.97;;
17794;SDS011;9021;50.882;4.326;2022-09-03T04:10:43;7.78;;;4.80;;
17794;SDS011;9021;50.882;4.326;2022-09-03T04:15:35;7.00;;;4.40;;
17794;SDS011;9021;50.882;4.326;2022-09-03T04:18:01;6.88;;;4.65;;
17794;SDS011;9021;50.882;4.326;2022-09-03T04:20:26;6.68;;;5.05;;
17794;SDS011;9021;50.882;4.326;2022-09-03T04:22:52;6.93;;;5.28;;
17794;SDS011;9021;50.882;4.326;2022-09-03T04:25:17;6.55;;;4.65;;
17794;SDS011;9021;50.882;4.326;2022-09-03T04:27:43;4.93;;;4.07;;
17794;SDS011;9021;50.882;4.326;2022-09-03T04:30:09;3.75;;;3.33;;
17794;SDS011;9021;50.882;4.326;2022-09-03T04:35:20;6.00;;;4.03;;
17794;SDS011;9021;50.882;4.326;2022-09-03T04:37:47;4.85;;;4.40;;
17794;SDS011;9021;50.882;4.326;2022-09-03T04:40:13;6.53;;;3.70;;
17794;SDS011;9021;50.882;4.326;2022-09-03T04:42:39;4.72;;;3.78;;
17794;SDS011;9021;50.882;4.326;2022-09-03T04:45:05;7.45;;;4.30;;
17794;SDS011;9021;50.882;4.326;2022-09-03T04:47:31;5.05;;;4.50;;
17794;SDS011;9021;50.882;4.326;2022-09-03T04:49:57;5.07;;;4.30;;
17794;SDS011;9021;50.882;4.326;2022-09-03T04:52:22;6.63;;;4.28;;
17794;SDS011;9021;50.882;4.326;2022-09-03T04:54:48;4.70;;;4.30;;
17794;SDS011;9021;50.882;4.326;2022-09-03T04:57:14;5.15;;;3.88;;
17794;SDS011;9021;50.882;4.326;2022-09-03T04:59:40;5.50;;;3.60;;
17794;SDS011;9021;50.882;4.326;2022-09-03T05:04:32;4.13;;;3.42;;
17794;SDS011;9021;50.882;4.326;2022-09-03T05:06:58;5.53;;;3.60;;
17794;SDS011;9021;50.882;4.326;2022-09-03T05:09:23;4.30;;;3.90;;
17794;SDS011;9021;50.882;4.326;2022-09-03T05:11:49;5.35;;;3.47;;
17794;SDS011;9021;50.882;4.326;2022-09-03T05:14:15;6.18;;;3.75;;
17794;SDS011;9021;50.882;4.326;2022-09-03T05:16:40;7.45;;;3.63;;
17794;SDS011;9021;50.882;4.326;2022-09-03T05:19:06;5.47;;;4.10;;
17794;SDS011;9021;50.882;4.326;2022-09-03T05:21:32;3.80;;;3.20;;
17794;SDS011;9021;50.882;4.326;2022-09-03T05:24:00;4.63;;;3.80;;
17794;SDS011;9021;50.882;4.326;2022-09-03T05:26:26;5.05;;;3.80;;
17794;SDS011;9021;50.882;4.326;2022-09-03T05:28:57;4.57;;;4.10;;
17794;SDS011;9021;50.882;4.326;2022-09-03T05:31:25;4.88;;;3.97;;
17794;SDS011;9021;50.882;4.326;2022-09-03T05:33:55;5.68;;;3.80;;
17794;SDS011;9021;50.882;4.326;2022-09-03T05:36:24;3.60;;;3.30;;
17794;SDS011;9021;50.882;4.326;2022-09-03T05:38:51;4.22;;;3.65;;
17794;SDS011;9021;50.882;4.326;2022-09-03T05:41:18;4.53;;;3.70;;
17794;SDS011;9021;50.882;4.326;2022-09-03T05:43:46;5.65;;;3.42;;
17794;SDS011;9021;50.882;4.326;2022-09-03T05:46:19;4.35;;;3.95;;
17794;SDS011;9021;50.882;4.326;2022-09-03T05:48:55;4.70;;;4.10;;
17794;SDS011;9021;50.882;4.326;2022-09-03T05:51:29;4.15;;;3.78;;
17794;SDS011;9021;50.882;4.326;2022-09-03T05:53:56;4.85;;;3.80;;
17794;SDS011;9021;50.882;4.326;2022-09-03T05:56:22;4.88;;;4.38;;
17794;SDS011;9021;50.882;4.326;2022-09-03T05:58:52;4.88;;;4.30;;
17794;SDS011;9021;50.882;4.326;2022-09-03T06:03:52;5.32;;;4.00;;
17794;SDS011;9021;50.882;4.326;2022-09-03T06:06:19;4.80;;;4.22;;
17794;SDS011;9021;50.882;4.326;2022-09-03T06:08:49;5.45;;;4.63;;
17794;SDS011;9021;50.882;4.326;2022-09-03T06:11:19;7.47;;;4.25;;
17794;SDS011;9021;50.882;4.326;2022-09-03T06:13:45;6.25;;;4.20;;
17794;SDS011;9021;50.882;4.326;2022-09-03T06:16:11;4.78;;;4.38;;
17794;SDS011;9021;50.882;4.326;2022-09-03T06:18:37;4.93;;;4.45;;
17794;SDS011;9021;50.882;4.326;2022-09-03T06:21:04;5.75;;;4.53;;
17794;SDS011;9021;50.882;4.326;2022-09-03T06:23:31;4.75;;;4.20;;
17794;SDS011;9021;50.882;4.326;2022-09-03T06:26:02;6.85;;;4.68;;
17794;SDS011;9021;50.882;4.326;2022-09-03T06:28:30;5.43;;;4.65;;
17794;SDS011;9021;50.882;4.326;2022-09-03T06:31:00;6.00;;;5.10;;
17794;SDS011;9021;50.882;4.326;2022-09-03T06:33:28;13.68;;;4.90;;
17794;SDS011;9021;50.882;4.326;2022-09-03T06:35:58;5.25;;;4.75;;
17794;SDS011;9021;50.882;4.326;2022-09-03T06:38:25;6.97;;;5.07;;
17794;SDS011;9021;50.882;4.326;2022-09-03T06:40:57;6.47;;;5.30;;
17794;SDS011;9021;50.882;4.326;2022-09-03T06:43:28;5.40;;;4.30;;
17794;SDS011;9021;50.882;4.326;2022-09-03T06:45:56;8.13;;;4.68;;
17794;SDS011;9021;50.882;4.326;2022-09-03T06:48:24;8.52;;;5.30;;
17794;SDS011;9021;50.882;4.326;2022-09-03T06:50:54;5.20;;;4.70;;
17794;SDS011;9021;50.882;4.326;2022-09-03T06:53:25;6.78;;;5.47;;
17794;SDS011;9021;50.882;4.326;2022-09-03T06:55:56;6.88;;;5.10;;
17794;SDS011;9021;50.882;4.326;2022-09-03T06:58:27;6.45;;;5.25;;
17794;SDS011;9021;50.882;4.326;2022-09-03T07:00:59;4.63;;;4.22;;
17794;SDS011;9021;50.882;4.326;2022-09-03T07:03:26;6.03;;;4.20;;
17794;SDS011;9021;50.882;4.326;2022-09-03T07:05:52;7.95;;;4.30;;
17794;SDS011;9021;50.882;4.326;2022-09-03T07:08:17;4.68;;;4.20;;
17794;SDS011;9021;50.882;4.326;2022-09-03T07:10:46;4.97;;;3.58;;
17794;SDS011;9021;50.882;4.326;2022-09-03T07:13:12;4.10;;;3.70;;
17794;SDS011;9021;50.882;4.326;2022-09-03T07:15:38;5.00;;;4.18;;
17794;SDS011;9021;50.882;4.326;2022-09-03T07:18:05;8.10;;;4.00;;
17794;SDS011;9021;50.882;4.326;2022-09-03T07:20:30;4.63;;;3.63;;
17794;SDS011;9021;50.882;4.326;2022-09-03T07:22:56;4.30;;;3.60;;
17794;SDS011;9021;50.882;4.326;2022-09-03T07:25:22;4.18;;;3.78;;
17794;SDS011;9021;50.882;4.326;2022-09-03T07:27:50;4.15;;;3.50;;
17794;SDS011;9021;50.882;4.326;2022-09-03T07:35:10;7.10;;;3.90;;
17794;SDS011;9021;50.882;4.326;2022-09-03T07:37:39;6.38;;;3.83;;
17794;SDS011;9021;50.882;4.326;2022-09-03T07:40:06;6.95;;;5.25;;
17794;SDS011;9021;50.882;4.326;2022-09-03T07:42:34;8.60;;;5.22;;
17794;SDS011;9021;50.882;4.326;2022-09-03T07:45:02;5.72;;;4.22;;
17794;SDS011;9021;50.882;4.326;2022-09-03T07:47:33;4.97;;;3.88;;
17794;SDS011;9021;50.882;4.326;2022-09-03T07:52:25;5.07;;;2.90;;
17794;SDS011;9021;50.882;4.326;2022-09-03T07:54:51;4.18;;;2.72;;
17794;SDS011;9021;50.882;4.326;2022-09-03T07:57:17;6.88;;;2.72;;
17794;SDS011;9021;50.882;4.326;2022-09-03T07:59:43;3.92;;;2.95;;
17794;SDS011;9021;50.882;4.326;2022-09-03T08:02:08;3.90;;;3.20;;
17794;SDS011;9021;50.882;4.326;2022-09-03T08:04:34;5.82;;;2.70;;
17794;SDS011;9021;50.882;4.326;2022-09-03T08:07:00;5.68;;;2.85;;
17794;SDS011;9021;50.882;4.326;2022-09-03T08:09:26;5.30;;;2.45;;
17794;SDS011;9021;50.882;4.326;2022-09-03T08:11:52;5.40;;;2.33;;
17794;SDS011;9021;50.882;4.326;2022-09-03T08:16:44;4.32;;;2.65;;
17794;SDS011;9021;50.882;4.326;2022-09-03T08:19:12;5.70;;;2.58;;
17794;SDS011;9021;50.882;4.326;2022-09-03T08:21:39;6.13;;;2.15;;
17794;SDS011;9021;50.882;4.326;2022-09-03T08:24:09;6.80;;;2.70;;
17794;SDS011;9021;50.882;4.326;2022-09-03T08:26:36;4.43;;;2.83;;
17794;SDS011;9021;50.882;4.326;2022-09-03T08:29:06;6.18;;;3.03;;
17794;SDS011;9021;50.882;4.326;2022-09-03T08:31:33;4.13;;;2.67;;
17794;SDS011;9021;50.882;4.326;2022-09-03T08:34:00;4.95;;;2.60;;
17794;SDS011;9021;50.882;4.326;2022-09-03T08:36:29;6.97;;;2.38;;
17794;SDS011;9021;50.882;4.326;2022-09-03T08:38:56;7.25;;;2.70;;
17794;SDS011;9021;50.882;4.326;2022-09-03T08:41:32;7.25;;;3.10;;
17794;SDS011;9021;50.882;4.326;2022-09-03T08:44:17;4.28;;;2.80;;
17794;SDS011;9021;50.882;4.326;2022-09-03T08:52:04;5.15;;;2.80;;
17794;SDS011;9021;50.882;4.326;2022-09-03T08:54:40;5.30;;;2.83;;
17794;SDS011;9021;50.882;4.326;2022-09-03T08:57:07;4.22;;;2.67;;
17794;SDS011;9021;50.882;4.326;2022-09-03T08:59:33;4.40;;;2.60;;
17794;SDS011;9021;50.882;4.326;2022-09-03T09:07:29;5.63;;;3.00;;
17794;SDS011;9021;50.882;4.326;2022-09-03T09:13:08;7.22;;;3.40;;
17794;SDS011;9021;50.882;4.326;2022-09-03T09:15:53;4.80;;;3.20;;
17794;SDS011;9021;50.882;4.326;2022-09-03T09:21:26;5.32;;;3.80;;
17794;SDS011;9021;50.882;4.326;2022-09-03T09:24:01;3.58;;;3.05;;
17794;SDS011;9021;50.882;4.326;2022-09-03T09:26:31;4.03;;;3.10;;
17794;SDS011;9021;50.882;4.326;2022-09-03T09:29:01;4.70;;;3.42;;
17794;SDS011;9021;50.882;4.326;2022-09-03T09:31:31;5.30;;;3.42;;
17794;SDS011;9021;50.882;4.326;2022-09-03T09:36:28;6.53;;;3.00;;
17794;SDS011;9021;50.882;4.326;2022-09-03T09:41:20;4.93;;;3.28;;
17794;SDS011;9021;50.882;4.326;2022-09-03T09:43:58;6.75;;;3.20;;
17794;SDS011;9021;50.882;4.326;2022-09-03T09:46:34;5.53;;;3.47;;
17794;SDS011;9021;50.882;4.326;2022-09-03T09:49:02;5.80;;;3.35;;
17794;SDS011;9021;50.882;4.326;2022-09-03T09:54:02;4.78;;;3.20;;
17794;SDS011;9021;50.882;4.326;2022-09-03T09:56:34;6.05;;;3.40;;
17794;SDS011;9021;50.882;4.326;2022-09-03T10:01:35;8.38;;;3.10;;
17794;SDS011;9021;50.882;4.326;2022-09-03T10:04:10;5.90;;;3.30;;
17794;SDS011;9021;50.882;4.326;2022-09-03T10:06:52;5.00;;;4.10;;
17794;SDS011;9021;50.882;4.326;2022-09-03T10:09:28;4.93;;;3.22;;
17794;SDS011;9021;50.882;4.326;2022-09-03T10:12:08;5.03;;;3.80;;
17794;SDS011;9021;50.882;4.326;2022-09-03T10:14:40;4.15;;;3.75;;
17794;SDS011;9021;50.882;4.326;2022-09-03T10:17:15;5.13;;;3.88;;
17794;SDS011;9021;50.882;4.326;2022-09-03T10:19:55;8.27;;;4.40;;
17794;SDS011;9021;50.882;4.326;2022-09-03T10:22:49;4.85;;;3.58;;
17794;SDS011;9021;50.882;4.326;2022-09-03T10:25:33;5.80;;;4.60;;
17794;SDS011;9021;50.882;4.326;2022-09-03T10:28:04;4.97;;;3.67;;
17794;SDS011;9021;50.882;4.326;2022-09-03T10:30:35;7.30;;;4.28;;
17794;SDS011;9021;50.882;4.326;2022-09-03T10:33:16;4.78;;;3.75;;
17794;SDS011;9021;50.882;4.326;2022-09-03T10:35:52;7.10;;;4.13;;
17794;SDS011;9021;50.882;4.326;2022-09-03T10:38:29;6.47;;;3.67;;
17794;SDS011;9021;50.882;4.326;2022-09-03T10:46:01;8.93;;;4.20;;
17794;SDS011;9021;50.882;4.326;2022-09-03T11:00:11;7.55;;;4.35;;
17794;SDS011;9021;50.882;4.326;2022-09-03T11:05:25;6.07;;;4.47;;
17794;SDS011;9021;50.882;4.326;2022-09-03T11:08:02;9.60;;;4.60;;
17794;SDS011;9021;50.882;4.326;2022-09-03T11:10:31;5.47;;;4.47;;
17794;SDS011;9021;50.882;4.326;2022-09-03T11:18:34;9.02;;;5.03;;
17794;SDS011;9021;50.882;4.326;2022-09-03T11:21:08;5.72;;;3.55;;
17794;SDS011;9021;50.882;4.326;2022-09-03T11:23:39;3.88;;;3.47;;
17794;SDS011;9021;50.882;4.326;2022-09-03T11:26:08;4.07;;;3.33;;
17794;SDS011;9021;50.882;4.326;2022-09-03T11:33:40;5.97;;;3.13;;
17794;SDS011;9021;50.882;4.326;2022-09-03T11:36:22;10.25;;;4.15;;
17794;SDS011;9021;50.882;4.326;2022-09-03T11:38:53;4.60;;;3.35;;
17794;SDS011;9021;50.882;4.326;2022-09-03T11:47:11;3.45;;;3.15;;
17794;SDS011;9021;50.882;4.326;2022-09-03T11:50:34;5.25;;;3.83;;
17794;SDS011;9021;50.882;4.326;2022-09-03T11:53:08;7.18;;;4.05;;
17794;SDS011;9021;50.882;4.326;2022-09-03T11:58:37;6.22;;;3.90;;
17794;SDS011;9021;50.882;4.326;2022-09-03T12:01:15;5.25;;;4.32;;
17794;SDS011;9021;50.882;4.326;2022-09-03T12:03:56;5.03;;;4.20;;
17794;SDS011;9021;50.882;4.326;2022-09-03T12:06:48;4.78;;;4.03;;
17794;SDS011;9021;50.882;4.326;2022-09-03T12:11:56;6.10;;;3.75;;
17794;SDS011;9021;50.882;4.326;2022-09-03T12:17:41;3.53;;;3.03;;
17794;SDS011;9021;50.882;4.326;2022-09-03T12:20:39;4.65;;;3.35;;
17794;SDS011;9021;50.882;4.326;2022-09-03T12:23:06;4.35;;;3.90;;
17794;SDS011;9021;50.882;4.326;2022-09-03T12:25:35;5.15;;;3.85;;
17794;SDS011;9021;50.882;4.326;2022-09-03T12:28:15;5.80;;;4.03;;
17794;SDS011;9021;50.882;4.326;2022-09-03T12:30:44;6.00;;;3.97;;
17794;SDS011;9021;50.882;4.326;2022-09-03T12:33:10;5.25;;;3.80;;
17794;SDS011;9021;50.882;4.326;2022-09-03T12:35:41;3.72;;;3.20;;
17794;SDS011;9021;50.882;4.326;2022-09-03T12:38:07;2.38;;;2.13;;
17794;SDS011;9021;50.882;4.326;2022-09-03T12:40:33;8.82;;;2.55;;
17794;SDS011;9021;50.882;4.326;2022-09-03T12:43:14;3.08;;;2.30;;
17794;SDS011;9021;50.882;4.326;2022-09-03T12:45:45;2.28;;;2.08;;
17794;SDS011;9021;50.882;4.326;2022-09-03T12:48:15;3.03;;;2.30;;
17794;SDS011;9021;50.882;4.326;2022-09-03T12:50:43;2.60;;;1.80;;
17794;SDS011;9021;50.882;4.326;2022-09-03T12:53:10;2.47;;;1.80;;
17794;SDS011;9021;50.882;4.326;2022-09-03T12:55:50;2.97;;;1.90;;
17794;SDS011;9021;50.882;4.326;2022-09-03T13:00:59;2.42;;;1.70;;
17794;SDS011;9021;50.882;4.326;2022-09-03T13:03:54;4.22;;;2.10;;
17794;SDS011;9021;50.882;4.326;2022-09-03T13:06:27;3.33;;;2.10;;
17794;SDS011;9021;50.882;4.326;2022-09-03T13:09:03;2.45;;;1.80;;
17794;SDS011;9021;50.882;4.326;2022-09-03T13:11:32;1.95;;;1.65;;
17794;SDS011;9021;50.882;4.326;2022-09-03T13:32:41;3.55;;;1.90;;
17794;SDS011;9021;50.882;4.326;2022-09-03T13:41:08;1.85;;;1.70;;
17794;SDS011;9021;50.882;4.326;2022-09-03T13:43:59;3.15;;;1.98;;
17794;SDS011;9021;50.882;4.326;2022-09-03T13:46:37;5.75;;;1.70;;
17794;SDS011;9021;50.882;4.326;2022-09-03T13:49:12;1.92;;;1.80;;
17794;SDS011;9021;50.882;4.326;2022-09-03T13:55:15;3.63;;;2.38;;
17794;SDS011;9021;50.882;4.326;2022-09-03T13:58:08;6.15;;;2.40;;
17794;SDS011;9021;50.882;4.326;2022-09-03T14:03:37;3.20;;;2.10;;
17794;SDS011;9021;50.882;4.326;2022-09-03T14:06:19;2.20;;;2.00;;
17794;SDS011;9021;50.882;4.326;2022-09-03T14:16:58;2.00;;;1.48;;
17794;SDS011;9021;50.882;4.326;2022-09-03T14:22:13;2.03;;;1.80;;
17794;SDS011;9021;50.882;4.326;2022-09-03T14:24:55;5.60;;;1.90;;
17794;SDS011;9021;50.882;4.326;2022-09-03T14:27:30;2.00;;;1.55;;
17794;SDS011;9021;50.882;4.326;2022-09-03T14:30:00;3.17;;;2.03;;
17794;SDS011;9021;50.882;4.326;2022-09-03T14:32:42;2.70;;;1.80;;
17794;SDS011;9021;50.882;4.326;2022-09-03T14:46:35;3.47;;;2.00;;
17794;SDS011;9021;50.882;4.326;2022-09-03T14:51:59;2.63;;;2.30;;
17794;SDS011;9021;50.882;4.326;2022-09-03T14:54:44;2.13;;;1.73;;
17794;SDS011;9021;50.882;4.326;2022-09-03T15:00:06;2.88;;;2.08;;
17794;SDS011;9021;50.882;4.326;2022-09-03T15:07:55;2.25;;;1.90;;
17794;SDS011;9021;50.882;4.326;2022-09-03T15:21:47;2.22;;;1.90;;
17794;SDS011;9021;50.882;4.326;2022-09-03T15:37:22;3.45;;;1.90;;
17794;SDS011;9021;50.882;4.326;2022-09-03T15:39:58;2.70;;;2.20;;
17794;SDS011;9021;50.882;4.326;2022-09-03T15:42:35;2.50;;;2.08;;
17794;SDS011;9021;50.882;4.326;2022-09-03T15:45:02;2.97;;;2.03;;
17794;SDS011;9021;50.882;4.326;2022-09-03T15:50:15;3.35;;;1.83;;
17794;SDS011;9021;50.882;4.326;2022-09-03T15:58:41;1.70;;;1.50;;
17794;SDS011;9021;50.882;4.326;2022-09-03T16:04:30;4.18;;;1.85;;
17794;SDS011;9021;50.882;4.326;2022-09-03T16:07:22;2.97;;;2.22;;
17794;SDS011;9021;50.882;4.326;2022-09-03T16:10:10;5.38;;;2.30;;
17794;SDS011;9021;50.882;4.326;2022-09-03T16:16:13;3.00;;;1.92;;
17794;SDS011;9021;50.882;4.326;2022-09-03T16:21:25;2.85;;;2.00;;
17794;SDS011;9021;50.882;4.326;2022-09-03T16:24:21;1.73;;;1.50;;
17794;SDS011;9021;50.882;4.326;2022-09-03T16:30:00;2.72;;;1.48;;
17794;SDS011;9021;50.882;4.326;2022-09-03T16:32:42;3.05;;;1.70;;
17794;SDS011;9021;50.882;4.326;2022-09-03T16:38:04;3.05;;;1.92;;
17794;SDS011;9021;50.882;4.326;2022-09-03T16:43:32;2.30;;;1.90;;
17794;SDS011;9021;50.882;4.326;2022-09-03T16:48:50;3.15;;;2.70;;
17794;SDS011;9021;50.882;4.326;2022-09-03T17:00:21;2.95;;;2.10;;
17794;SDS011;9021;50.882;4.326;2022-09-03T17:14:03;4.80;;;3.65;;
17794;SDS011;9021;50.882;4.326;2022-09-03T17:22:02;4.60;;;2.50;;
17794;SDS011;9021;50.882;4.326;2022-09-03T17:24:53;3.92;;;3.15;;
17794;SDS011;9021;50.882;4.326;2022-09-03T17:30:14;4.95;;;2.35;;
17794;SDS011;9021;50.882;4.326;2022-09-03T17:36:26;2.58;;;2.30;;
17794;SDS011;9021;50.882;4.326;2022-09-03T17:41:45;3.25;;;2.25;;
17794;SDS011;9021;50.882;4.326;2022-09-03T17:49:53;2.55;;;1.90;;
17794;SDS011;9021;50.882;4.326;2022-09-03T17:52:48;3.72;;;2.50;;
17794;SDS011;9021;50.882;4.326;2022-09-03T17:58:12;5.70;;;3.30;;
17794;SDS011;9021;50.882;4.326;2022-09-03T18:03:54;5.95;;;4.00;;
17794;SDS011;9021;50.882;4.326;2022-09-03T18:09:29;3.83;;;3.00;;
17794;SDS011;9021;50.882;4.326;2022-09-03T18:12:12;5.35;;;3.67;;
17794;SDS011;9021;50.882;4.326;2022-09-03T18:18:10;4.50;;;2.60;;
17794;SDS011;9021;50.882;4.326;2022-09-03T18:20:46;3.95;;;3.10;;
17794;SDS011;9021;50.882;4.326;2022-09-03T18:23:51;3.63;;;3.30;;
17794;SDS011;9021;50.882;4.326;2022-09-03T18:27:00;4.88;;;2.92;;
17794;SDS011;9021;50.882;4.326;2022-09-03T18:30:09;2.90;;;2.33;;
17794;SDS011;9021;50.882;4.326;2022-09-03T18:32:55;4.50;;;3.30;;
17794;SDS011;9021;50.882;4.326;2022-09-03T18:35:41;5.18;;;3.78;;
17794;SDS011;9021;50.882;4.326;2022-09-03T18:38:29;4.93;;;3.42;;
17794;SDS011;9021;50.882;4.326;2022-09-03T18:41:19;7.18;;;3.55;;
17794;SDS011;9021;50.882;4.326;2022-09-03T18:44:16;4.30;;;3.90;;
17794;SDS011;9021;50.882;4.326;2022-09-03T18:47:13;6.13;;;3.80;;
17794;SDS011;9021;50.882;4.326;2022-09-03T18:50:51;4.95;;;4.15;;
17794;SDS011;9021;50.882;4.326;2022-09-03T19:02:30;3.97;;;2.85;;
17794;SDS011;9021;50.882;4.326;2022-09-03T19:05:35;3.80;;;2.92;;
17794;SDS011;9021;50.882;4.326;2022-09-03T19:08:31;7.22;;;3.20;;
17794;SDS011;9021;50.882;4.326;2022-09-03T19:11:27;3.88;;;2.70;;
17794;SDS011;9021;50.882;4.326;2022-09-03T19:14:23;6.30;;;2.50;;
17794;SDS011;9021;50.882;4.326;2022-09-03T19:17:41;4.40;;;3.00;;
17794;SDS011;9021;50.882;4.326;2022-09-03T19:20:37;5.25;;;2.78;;
17794;SDS011;9021;50.882;4.326;2022-09-03T19:23:27;4.07;;;2.58;;
17794;SDS011;9021;50.882;4.326;2022-09-03T19:26:57;3.78;;;2.65;;
17794;SDS011;9021;50.882;4.326;2022-09-03T19:29:27;4.88;;;2.70;;
17794;SDS011;9021;50.882;4.326;2022-09-03T19:32:58;4.43;;;3.10;;
17794;SDS011;9021;50.882;4.326;2022-09-03T19:35:57;4.03;;;3.00;;
17794;SDS011;9021;50.882;4.326;2022-09-03T19:41:47;4.82;;;3.63;;
17794;SDS011;9021;50.882;4.326;2022-09-03T19:51:03;5.32;;;2.70;;
17794;SDS011;9021;50.882;4.326;2022-09-03T19:53:50;3.30;;;3.00;;
17794;SDS011;9021;50.882;4.326;2022-09-03T19:56:35;5.97;;;2.97;;
17794;SDS011;9021;50.882;4.326;2022-09-03T19:59:21;6.85;;;6.00;;
17794;SDS011;9021;50.882;4.326;2022-09-03T20:02:09;5.93;;;4.03;;
17794;SDS011;9021;50.882;4.326;2022-09-03T20:04:57;4.25;;;2.75;;
17794;SDS011;9021;50.882;4.326;2022-09-03T20:07:49;4.40;;;2.80;;
17794;SDS011;9021;50.882;4.326;2022-09-03T20:10:36;3.38;;;2.97;;
17794;SDS011;9021;50.882;4.326;2022-09-03T20:15:45;4.32;;;2.53;;
17794;SDS011;9021;50.882;4.326;2022-09-03T20:23:38;5.18;;;3.15;;
17794;SDS011;9021;50.882;4.326;2022-09-03T20:29:25;6.57;;;3.38;;
17794;SDS011;9021;50.882;4.326;2022-09-03T20:32:10;8.52;;;3.42;;
17794;SDS011;9021;50.882;4.326;2022-09-03T20:48:47;4.65;;;3.47;;
17794;SDS011;9021;50.882;4.326;2022-09-03T20:51:21;6.00;;;3.28;;
17794;SDS011;9021;50.882;4.326;2022-09-03T20:59:33;5.00;;;3.40;;
17794;SDS011;9021;50.882;4.326;2022-09-03T21:05:08;4.43;;;3.35;;
17794;SDS011;9021;50.882;4.326;2022-09-03T21:21:37;5.05;;;3.72;;
17794;SDS011;9021;50.882;4.326;2022-09-03T21:24:14;4.55;;;3.60;;
17794;SDS011;9021;50.882;4.326;2022-09-03T21:26:49;4.68;;;3.33;;
17794;SDS011;9021;50.882;4.326;2022-09-03T21:29:26;5.15;;;3.20;;
17794;SDS011;9021;50.882;4.326;2022-09-03T21:34:42;4.22;;;3.30;;
17794;SDS011;9021;50.882;4.326;2022-09-03T21:37:14;6.07;;;3.80;;
17794;SDS011;9021;50.882;4.326;2022-09-03T21:39:43;4.10;;;3.38;;
17794;SDS011;9021;50.882;4.326;2022-09-03T21:42:18;5.13;;;3.75;;
17794;SDS011;9021;50.882;4.326;2022-09-03T21:48:05;6.68;;;3.42;;
17794;SDS011;9021;50.882;4.326;2022-09-03T21:50:48;6.63;;;3.55;;
17794;SDS011;9021;50.882;4.326;2022-09-03T21:53:29;4.97;;;3.40;;
17794;SDS011;9021;50.882;4.326;2022-09-03T22:04:20;4.05;;;3.40;;
17794;SDS011;9021;50.882;4.326;2022-09-03T22:07:01;3.72;;;3.42;;
17794;SDS011;9021;50.882;4.326;2022-09-03T22:09:43;6.00;;;3.55;;
17794;SDS011;9021;50.882;4.326;2022-09-03T22:13:04;4.13;;;3.55;;
17794;SDS011;9021;50.882;4.326;2022-09-03T22:15:21;5.68;;;3.45;;
17794;SDS011;9021;50.882;4.326;2022-09-03T22:17:47;4.20;;;3.40;;
17794;SDS011;9021;50.882;4.326;2022-09-03T22:20:21;4.13;;;3.42;;
17794;SDS011;9021;50.882;4.326;2022-09-03T22:22:51;4.00;;;3.20;;
17794;SDS011;9021;50.882;4.326;2022-09-03T22:49:53;12.60;;;3.83;;